»·PEaware :: SKW320 KASE-KDEN

SKW320 :: KASE-KDEN

FLIGHT INFORMATION

Flight Status: Arrived
Operator:
SkyWest Airlines
More flights by this operator :: More flights under this callsign
Pilot: Blake W. (12100)
Aircraft: CANADAIR CL-600 CRJ-200
(CRJ2)
More flights by this aircraft type
Origin: KASE Aspen-Pitkin Co/Sardy
United States
Destination: KDEN Denver Intl
United States
More flights between these airports :: More routes between these airports
Route: +ASPE7 DBL LARKS LARKS8
File this flight plan on PilotEdge
Remarks:
Altitude:
(Current/Filed)
25,000ft
Speed:
(Current/Filed)
400kts
Departed: 07-Jan-18 04:18 PM
Arrived: 07-Jan-18 04:54 PM
Distance/Time
Traveled:
108nm/0:35
Distance/Time
To Go:
Arrived

Flight Plot

Page will automatically refresh every two minutes.

Flight plan parsing failed; only flown route is shown


Map Options




Map Legend


Flown Route
Filed Route
Departure Airport
Arrival Airport
Navaid (VOR, NDB)
Fix

Horizontal Profiles

Position Reports

Time Latitude Longitude Heading Altitude Ground
Speed
07-Jan-18 15:46 39.218555 -106.864167 248 7781ft 0kts
07-Jan-18 15:47 39.218555 -106.864167 248 7781ft 0kts
07-Jan-18 15:48 39.218555 -106.864167 248 7781ft 0kts
07-Jan-18 15:49 39.218555 -106.864167 248 7781ft 0kts
07-Jan-18 15:50 39.218555 -106.864167 248 7781ft 0kts
07-Jan-18 15:51 39.218555 -106.864167 248 7781ft 0kts
07-Jan-18 15:52 39.218555 -106.864167 248 7781ft 0kts
07-Jan-18 15:53 39.218555 -106.864167 248 7781ft 0kts
07-Jan-18 15:54 39.218555 -106.864167 248 7781ft 0kts
07-Jan-18 15:55 39.218555 -106.864167 248 7781ft 0kts
07-Jan-18 15:56 39.218555 -106.864167 248 7781ft 0kts
07-Jan-18 15:57 39.218555 -106.864167 248 7781ft 0kts
07-Jan-18 15:58 39.218555 -106.864167 248 7781ft 0kts
07-Jan-18 15:59 39.218555 -106.864167 248 7781ft 0kts
07-Jan-18 16:00 39.218555 -106.864167 248 7781ft 0kts
07-Jan-18 16:01 39.218555 -106.864167 248 7781ft 0kts
07-Jan-18 16:02 39.218555 -106.864167 248 7781ft 0kts
07-Jan-18 16:03 39.218555 -106.864167 248 7781ft 0kts
07-Jan-18 16:04 39.218555 -106.864167 248 7781ft 0kts
07-Jan-18 16:05 39.218555 -106.864167 248 7781ft 0kts
07-Jan-18 16:06 39.218555 -106.864167 248 7781ft 0kts
07-Jan-18 16:07 39.218555 -106.864167 248 7781ft 0kts
07-Jan-18 16:08 39.218555 -106.864167 248 7781ft 0kts
07-Jan-18 16:09 39.218555 -106.864167 248 7781ft 0kts
07-Jan-18 16:10 39.218555 -106.864167 248 7781ft 0kts
07-Jan-18 16:11 39.218555 -106.864167 248 7781ft 0kts
07-Jan-18 16:12 39.218555 -106.864167 248 7781ft 0kts
07-Jan-18 16:13 39.218555 -106.864167 248 7781ft 0kts
07-Jan-18 16:14 39.218555 -106.864167 248 7781ft 0kts
07-Jan-18 16:15 39.218555 -106.864167 248 7781ft 0kts
07-Jan-18 16:16 39.218555 -106.864167 248 7781ft 0kts
07-Jan-18 16:17 39.218555 -106.864167 248 7781ft 0kts
07-Jan-18 16:18 39.218555 -106.864167 248 7781ft 0kts
07-Jan-18 16:19 39.218555 -106.864167 248 7781ft 0kts
07-Jan-18 16:20 39.216702 -106.864589 159 7791ft 13kts
07-Jan-18 16:21 39.212773 -106.862721 160 7814ft 9kts
07-Jan-18 16:22 39.212508 -106.862671 197 7816ft 0kts
07-Jan-18 16:23 39.212276 -106.863037 249 7816ft 11kts
07-Jan-18 16:24 39.229947 -106.872103 338 7701ft 178kts
07-Jan-18 16:25 39.288608 -106.882304 356 9695ft 232kts
07-Jan-18 16:26 39.353584 -106.888844 356 12218ft 241kts
07-Jan-18 16:27 39.420048 -106.889716 25 14511ft 246kts
07-Jan-18 16:28 39.434551 -106.808992 98 15981ft 269kts
07-Jan-18 16:29 39.421741 -106.704776 98 16809ft 310kts
07-Jan-18 16:30 39.407837 -106.591114 98 17938ft 332kts
07-Jan-18 16:31 39.393112 -106.470797 98 19056ft 348kts
07-Jan-18 16:32 39.377317 -106.347039 98 20167ft 358kts
07-Jan-18 16:33 39.361499 -106.222404 98 21339ft 361kts
07-Jan-18 16:34 39.345459 -106.095193 98 22527ft 361kts
07-Jan-18 16:35 39.329545 -105.968239 98 23713ft 358kts
07-Jan-18 16:36 39.313923 -105.842981 98 24895ft 352kts
07-Jan-18 16:37 39.294915 -105.716555 98 24521ft 376kts
07-Jan-18 16:38 39.268396 -105.582311 98 23600ft 398kts
07-Jan-18 16:39 39.248000 -105.444304 97 22650ft 383kts
07-Jan-18 16:40 39.229341 -105.314204 98 21639ft 367kts
07-Jan-18 16:41 39.208916 -105.187615 86 20651ft 354kts
07-Jan-18 16:42 39.266547 -105.112342 357 19719ft 304kts
07-Jan-18 16:43 39.351012 -105.099964 16 18733ft 317kts
07-Jan-18 16:44 39.426862 -105.045219 26 16951ft 311kts
07-Jan-18 16:45 39.495797 -104.987130 27 15134ft 281kts
07-Jan-18 16:46 39.557750 -104.934621 32 13310ft 258kts
07-Jan-18 16:47 39.618652 -104.882230 33 11564ft 276kts
07-Jan-18 16:48 39.683371 -104.833694 14 11013ft 262kts
07-Jan-18 16:49 39.753550 -104.836547 357 10936ft 255kts
07-Jan-18 16:50 39.823311 -104.844918 354 11114ft 249kts
07-Jan-18 16:51 39.892011 -104.852414 357 10655ft 257kts
07-Jan-18 16:52 39.963782 -104.859290 356 10075ft 259kts
07-Jan-18 16:53 40.033805 -104.864673 357 9774ft 253kts
07-Jan-18 16:54 40.072395 -104.808523 88 9293ft 232kts
07-Jan-18 16:55 40.054779 -104.741821 147 8996ft 190kts
07-Jan-18 16:56 40.013888 -104.711003 152 8136ft 164kts
07-Jan-18 16:57 39.972599 -104.691243 165 6965ft 156kts
07-Jan-18 16:58 39.930981 -104.686249 178 6059ft 146kts
07-Jan-18 16:59 39.892406 -104.686873 177 5354ft 135kts
07-Jan-18 17:00 39.872034 -104.685599 153 5347ft 18kts
07-Jan-18 17:01 39.871896 -104.685507 151 5348ft 0kts
07-Jan-18 17:02 39.871896 -104.685507 151 5348ft 0kts
07-Jan-18 17:03 39.870608 -104.684992 179 5350ft 15kts
07-Jan-18 17:04 39.865264 -104.685056 180 5353ft 16kts
07-Jan-18 17:05 39.861773 -104.685101 179 5352ft 13kts
07-Jan-18 17:06 39.857421 -104.685144 179 5349ft 11kts
07-Jan-18 17:07 39.856866 -104.682952 90 5361ft 15kts
07-Jan-18 17:08 39.856839 -104.676147 45 5372ft 15kts
07-Jan-18 17:09 39.858075 -104.675347 1 5370ft 0kts
07-Jan-18 17:10 39.858075 -104.675347 1 5370ft 0kts
07-Jan-18 17:11 39.858075 -104.675347 1 5370ft 0kts
07-Jan-18 17:12 39.858075 -104.675347 1 5370ft 0kts
07-Jan-18 17:13 39.858075 -104.675347 1 5370ft 0kts
07-Jan-18 17:14 39.858075 -104.675347 1 5370ft 0kts

Navigation Log

Ident Type
Flight plan parsing failed, navigation log unavailable